Time;durP1;ratioP1;P1;durP2;ratioP2;P2;SDS_P1;SDS_P2;PMS_P1;PMS_P2;Temp;Humidity;BMP_temperature;BMP_pressure;BME280_temperature;BME280_humidity;BME280_pressure;Samples;Min_cycle;Max_cycle;Signal;HPM_P1;HPM_P2
2022/01/21 00:00:15;;;;;;;;;;;1.60;99.90;;;;;;5049877;28;19931;-74
2022/01/21 00:02:42;;;;;;;;;;;1.80;99.90;;;;;;5045569;28;19924;-75
2022/01/21 00:05:10;;;;;;;;;;;1.80;99.90;;;;;;5051454;28;20488;-75
2022/01/21 00:07:36;;;;;;;;;;;1.90;99.90;;;;;;5051795;28;19932;-75
2022/01/21 00:10:04;;;;;;;;;;;2.00;99.90;;;;;;5049487;28;22238;-74
2022/01/21 00:12:34;;;;;;;;;;;2.00;99.90;;;;;;5047285;28;19924;-74
2022/01/21 00:15:00;;;;;;;;;;;2.00;99.90;;;;;;5052604;28;19924;-74
2022/01/21 00:17:27;;;;;;;;;;;2.00;99.90;;;;;;5046894;28;20410;-74
2022/01/21 00:30:06;;;;;;;;;;;1.90;99.90;;;;;;5050943;28;20506;-74
2022/01/21 00:30:54;;;;;;;;;;;1.60;99.90;;;;;;5048709;28;19979;-73
2022/01/21 00:33:21;;;;;;;;;;;1.60;99.90;;;;;;5049252;28;20014;-74
2022/01/21 00:35:48;;;;;;;;;;;1.60;99.90;;;;;;5048054;28;19931;-74
2022/01/21 00:38:15;;;;;;;;;;;1.50;99.90;;;;;;5047106;28;19925;-74
2022/01/21 00:40:41;;;;;;;;;;;1.50;99.90;;;;;;5049830;28;19935;-74
2022/01/21 00:43:15;;;;;;;;;;;1.50;99.90;;;;;;5046523;28;20383;-74
2022/01/21 00:45:42;;;;;;;;;;;1.50;99.90;;;;;;5048135;28;19932;-74
2022/01/21 00:48:09;;;;;;;;;;;1.50;99.90;;;;;;5047908;28;19932;-74
2022/01/21 00:50:36;;;;;;;;;;;1.50;99.90;;;;;;5047815;28;20311;-74
2022/01/21 00:53:02;;;;;;;;;;;1.50;99.90;;;;;;5046213;28;19925;-74
2022/01/21 00:55:29;;;;;;;;;;;1.50;99.90;;;;;;5050706;28;20018;-73
2022/01/21 00:57:56;;;;;;;;;;;1.50;99.90;;;;;;5054897;28;20290;-74
2022/01/21 01:00:24;;;;;;;;;;;1.50;99.90;;;;;;5052046;28;19934;-74
2022/01/21 01:02:51;;;;;;;;;;;1.40;99.90;;;;;;5049548;28;19928;-75
2022/01/21 01:05:17;;;;;;;;;;;1.40;99.90;;;;;;5045809;28;19952;-74
2022/01/21 01:07:44;;;;;;;;;;;1.40;99.90;;;;;;5047216;28;19932;-74
2022/01/21 01:10:18;;;;;;;;;;;1.40;99.90;;;;;;5049125;28;19928;-74
2022/01/21 01:12:57;;;;;;;;;;;1.40;99.90;;;;;;5048627;28;19986;-74
2022/01/21 01:20:53;;;;;;;;;;;1.40;99.90;;;;;;5048711;28;20345;-74
2022/01/21 01:23:25;;;;;;;;;;;1.30;99.90;;;;;;5048791;28;19931;-75
2022/01/21 01:28:37;;;;;;;;;;;1.30;99.90;;;;;;5045757;28;19994;-74
2022/01/21 01:31:05;;;;;;;;;;;1.20;99.90;;;;;;5048032;28;19928;-76
2022/01/21 01:33:36;;;;;;;;;;;1.20;99.90;;;;;;5050689;28;19924;-75
2022/01/21 01:36:04;;;;;;;;;;;1.20;99.90;;;;;;5047477;28;19952;-74
2022/01/21 01:38:43;;;;;;;;;;;1.20;99.90;;;;;;5045920;28;19939;-75
2022/01/21 01:41:13;;;;;;;;;;;1.30;99.90;;;;;;5046500;28;19932;-74
2022/01/21 01:51:44;;;;;;;;;;;1.70;99.90;;;;;;5053469;28;19940;-74
2022/01/21 01:54:13;;;;;;;;;;;1.80;99.90;;;;;;5050613;28;19931;-74
2022/01/21 01:56:41;;;;;;;;;;;1.80;99.90;;;;;;5052978;28;19930;-75
2022/01/21 01:59:07;;;;;;;;;;;1.80;99.90;;;;;;5052212;28;20016;-74
2022/01/21 02:01:35;;;;;;;;;;;1.90;99.90;;;;;;5051582;28;19924;-74
2022/01/21 02:04:02;;;;;;;;;;;2.00;99.90;;;;;;5054535;28;19929;-75
2022/01/21 02:06:29;;;;;;;;;;;2.00;99.90;;;;;;5052074;28;19932;-75
2022/01/21 02:08:55;;;;;;;;;;;2.00;99.90;;;;;;5050947;28;19932;-74
2022/01/21 02:11:22;;;;;;;;;;;2.10;99.90;;;;;;5051966;28;19932;-75
2022/01/21 02:13:56;;;;;;;;;;;2.10;99.90;;;;;;5052718;28;19928;-74
2022/01/21 02:16:35;;;;;;;;;;;2.00;99.90;;;;;;5051465;28;20410;-74
2022/01/21 02:21:49;;;;;;;;;;;1.80;99.90;;;;;;5051312;28;20185;-74
2022/01/21 02:24:19;;;;;;;;;;;1.70;99.90;;;;;;5051287;28;19924;-74
2022/01/21 02:26:47;;;;;;;;;;;1.70;99.90;;;;;;5051647;28;20615;-74
2022/01/21 02:29:25;;;;;;;;;;;1.70;99.90;;;;;;5052556;28;19928;-75
2022/01/21 02:31:52;;;;;;;;;;;1.70;99.90;;;;;;5049044;28;20208;-75
2022/01/21 02:34:19;;;;;;;;;;;1.80;99.90;;;;;;5052690;28;19931;-74
2022/01/21 02:36:45;;;;;;;;;;;1.80;99.90;;;;;;5052328;28;19933;-74
2022/01/21 02:39:13;;;;;;;;;;;1.90;99.90;;;;;;5049946;28;20320;-74
2022/01/21 02:41:40;;;;;;;;;;;1.90;99.90;;;;;;5052204;28;19933;-74
2022/01/21 02:44:08;;;;;;;;;;;2.00;99.90;;;;;;5051755;28;20287;-74
2022/01/21 02:46:39;;;;;;;;;;;2.00;99.90;;;;;;5052554;28;19929;-74
2022/01/21 02:49:06;;;;;;;;;;;2.00;99.90;;;;;;5052924;28;19925;-75
2022/01/21 02:51:33;;;;;;;;;;;2.00;99.90;;;;;;5050923;28;20478;-75
2022/01/21 02:54:06;;;;;;;;;;;2.10;99.90;;;;;;5053852;28;20164;-74
2022/01/21 02:56:35;;;;;;;;;;;2.10;99.90;;;;;;5050340;28;19938;-75
2022/01/21 02:59:02;;;;;;;;;;;2.20;99.90;;;;;;5053019;28;19939;-74
2022/01/21 03:01:32;;;;;;;;;;;2.30;99.90;;;;;;5048789;28;19931;-75
2022/01/21 03:03:59;;;;;;;;;;;2.30;99.90;;;;;;5051639;28;19931;-75
2022/01/21 03:06:25;;;;;;;;;;;2.30;99.90;;;;;;5049380;28;19936;-74
2022/01/21 03:08:53;;;;;;;;;;;2.40;99.90;;;;;;5063972;28;20458;-75
2022/01/21 03:11:20;;;;;;;;;;;2.30;99.90;;;;;;5048602;28;19932;-75
2022/01/21 03:13:48;;;;;;;;;;;2.30;99.90;;;;;;5052587;28;19935;-74
2022/01/21 03:16:15;;;;;;;;;;;2.20;99.90;;;;;;5053953;28;20426;-74
2022/01/21 03:18:42;;;;;;;;;;;2.20;99.90;;;;;;5051526;28;20383;-75
2022/01/21 03:21:11;;;;;;;;;;;2.20;99.90;;;;;;5050885;28;20022;-75
2022/01/21 03:23:37;;;;;;;;;;;2.30;99.90;;;;;;5047936;28;20435;-74
2022/01/21 03:26:05;;;;;;;;;;;2.30;99.90;;;;;;5050601;28;19951;-75
2022/01/21 03:28:31;;;;;;;;;;;2.30;99.90;;;;;;5052554;28;19928;-74
2022/01/21 03:30:59;;;;;;;;;;;2.30;99.90;;;;;;5052834;28;19933;-74
2022/01/21 03:33:26;;;;;;;;;;;2.20;99.90;;;;;;5051151;28;20119;-75
2022/01/21 03:35:53;;;;;;;;;;;2.20;99.90;;;;;;5049053;28;19931;-75
2022/01/21 03:38:20;;;;;;;;;;;2.10;99.90;;;;;;5050550;28;19932;-74
2022/01/21 03:40:47;;;;;;;;;;;2.00;99.90;;;;;;5050784;28;20054;-75
2022/01/21 03:43:15;;;;;;;;;;;2.00;99.90;;;;;;5045873;28;19924;-75
2022/01/21 03:45:42;;;;;;;;;;;1.90;99.90;;;;;;5053917;28;19933;-74
2022/01/21 03:48:10;;;;;;;;;;;2.00;99.90;;;;;;5052004;28;19924;-74
2022/01/21 03:50:36;;;;;;;;;;;2.00;99.90;;;;;;5051591;28;20395;-74
2022/01/21 03:53:04;;;;;;;;;;;2.10;99.90;;;;;;5047750;28;19932;-74
2022/01/21 03:55:31;;;;;;;;;;;2.00;99.90;;;;;;5048798;28;19948;-74
2022/01/21 03:57:58;;;;;;;;;;;2.00;99.90;;;;;;5050381;28;19936;-74
2022/01/21 04:00:29;;;;;;;;;;;2.00;99.90;;;;;;5050826;28;20468;-74
2022/01/21 04:02:56;;;;;;;;;;;1.90;99.90;;;;;;5050061;28;19925;-74
2022/01/21 04:05:24;;;;;;;;;;;1.90;99.90;;;;;;5049420;28;19924;-74
2022/01/21 04:07:51;;;;;;;;;;;1.90;99.90;;;;;;5048813;28;20392;-74
2022/01/21 04:10:18;;;;;;;;;;;2.00;99.90;;;;;;5047541;28;19932;-73
2022/01/21 04:12:45;;;;;;;;;;;1.90;99.90;;;;;;5049094;28;19925;-73
2022/01/21 04:15:12;;;;;;;;;;;1.90;99.90;;;;;;5048622;28;20417;-74
2022/01/21 04:17:38;;;;;;;;;;;2.00;99.90;;;;;;5052555;28;19925;-74
2022/01/21 04:20:06;;;;;;;;;;;2.00;99.90;;;;;;5047307;28;20289;-73
2022/01/21 04:22:34;;;;;;;;;;;2.00;99.90;;;;;;5052239;28;19943;-74
2022/01/21 04:25:01;;;;;;;;;;;2.00;99.90;;;;;;5048495;28;19943;-75
2022/01/21 04:27:28;;;;;;;;;;;2.00;99.90;;;;;;5048803;28;21510;-73
2022/01/21 04:29:54;;;;;;;;;;;2.10;99.90;;;;;;5050682;28;19933;-74
2022/01/21 04:32:21;;;;;;;;;;;2.10;99.90;;;;;;5051571;28;20314;-74
2022/01/21 04:34:48;;;;;;;;;;;2.10;99.90;;;;;;5044497;28;19951;-75
2022/01/21 04:37:16;;;;;;;;;;;2.10;99.90;;;;;;5052589;28;19931;-74
2022/01/21 04:39:49;;;;;;;;;;;2.10;99.90;;;;;;5053897;28;19932;-74
2022/01/21 04:47:45;;;;;;;;;;;1.90;99.90;;;;;;5049900;28;19983;-74
2022/01/21 04:50:13;;;;;;;;;;;1.70;99.90;;;;;;5049555;28;19929;-73
2022/01/21 04:52:41;;;;;;;;;;;1.70;99.90;;;;;;5049790;28;20019;-74
2022/01/21 04:55:10;;;;;;;;;;;1.60;99.90;;;;;;5053560;28;19940;-74
2022/01/21 04:57:37;;;;;;;;;;;1.60;99.90;;;;;;5051756;28;19950;-74
2022/01/21 05:00:04;;;;;;;;;;;1.50;99.90;;;;;;5050984;28;19931;-74
2022/01/21 05:02:32;;;;;;;;;;;1.50;99.90;;;;;;5046211;28;19924;-74
2022/01/21 05:04:59;;;;;;;;;;;1.50;99.90;;;;;;5047044;28;20412;-75
2022/01/21 05:07:28;;;;;;;;;;;1.60;99.90;;;;;;5049463;28;19932;-76
2022/01/21 05:09:54;;;;;;;;;;;1.60;99.90;;;;;;5050793;28;19936;-75
2022/01/21 05:12:24;;;;;;;;;;;1.60;99.90;;;;;;5048897;28;19932;-75
2022/01/21 05:15:06;;;;;;;;;;;1.60;99.90;;;;;;5051009;28;19925;-75
2022/01/21 05:17:40;;;;;;;;;;;1.60;99.90;;;;;;5055915;28;20391;-74
2022/01/21 05:20:07;;;;;;;;;;;1.60;99.90;;;;;;5050606;28;19956;-74
2022/01/21 05:22:34;;;;;;;;;;;1.60;99.90;;;;;;5052284;28;19991;-75
2022/01/21 05:25:00;;;;;;;;;;;1.60;99.90;;;;;;5050493;28;19939;-75
2022/01/21 05:27:28;;;;;;;;;;;1.60;99.90;;;;;;5053115;28;19939;-74
2022/01/21 05:29:55;;;;;;;;;;;1.70;99.90;;;;;;5050946;28;20399;-74
2022/01/21 05:32:22;;;;;;;;;;;1.70;99.90;;;;;;5052240;28;19925;-74
2022/01/21 05:34:48;;;;;;;;;;;1.70;99.90;;;;;;5053419;28;20410;-74
2022/01/21 05:37:15;;;;;;;;;;;1.80;99.90;;;;;;5052805;28;19931;-75
2022/01/21 05:39:42;;;;;;;;;;;1.80;99.90;;;;;;5051191;28;19932;-74
2022/01/21 05:42:09;;;;;;;;;;;1.80;99.90;;;;;;5049381;28;20309;-73
2022/01/21 05:47:21;;;;;;;;;;;1.60;99.90;;;;;;5051872;28;20294;-73
2022/01/21 05:49:47;;;;;;;;;;;1.60;99.90;;;;;;5057211;28;20111;-73
2022/01/21 05:52:18;;;;;;;;;;;1.50;99.90;;;;;;5054901;28;20095;-73
2022/01/21 05:54:45;;;;;;;;;;;1.50;99.90;;;;;;5054822;28;20390;-74
2022/01/21 05:57:14;;;;;;;;;;;1.40;99.90;;;;;;5053607;28;21093;-73
2022/01/21 05:59:42;;;;;;;;;;;1.40;99.90;;;;;;5051367;28;19924;-74
2022/01/21 06:02:09;;;;;;;;;;;1.50;99.90;;;;;;5052019;28;19925;-73
2022/01/21 06:04:38;;;;;;;;;;;1.40;99.90;;;;;;5061945;28;19924;-74
2022/01/21 06:07:05;;;;;;;;;;;1.40;99.90;;;;;;5058758;28;19928;-74
2022/01/21 06:09:32;;;;;;;;;;;1.40;99.90;;;;;;5057206;28;19940;-74
2022/01/21 06:12:14;;;;;;;;;;;1.30;99.90;;;;;;5057024;28;19932;-75
2022/01/21 06:14:43;;;;;;;;;;;1.30;99.90;;;;;;5063247;28;20414;-74
2022/01/21 06:17:11;;;;;;;;;;;1.30;99.90;;;;;;5059237;28;20288;-74
2022/01/21 06:19:38;;;;;;;;;;;1.30;99.90;;;;;;5057430;28;19935;-76
2022/01/21 06:22:07;;;;;;;;;;;1.30;99.90;;;;;;5065011;28;19929;-74
2022/01/21 06:24:34;;;;;;;;;;;1.30;99.90;;;;;;5059238;28;19932;-75
2022/01/21 06:27:03;;;;;;;;;;;1.20;99.90;;;;;;5065961;28;19924;-75
2022/01/21 06:29:29;;;;;;;;;;;1.20;99.90;;;;;;5055174;28;20037;-76
2022/01/21 06:31:58;;;;;;;;;;;1.20;99.90;;;;;;5056783;28;19936;-75
2022/01/21 06:34:26;;;;;;;;;;;1.10;99.90;;;;;;5053790;28;20417;-76
2022/01/21 06:36:54;;;;;;;;;;;1.10;99.90;;;;;;5060879;28;19931;-75
2022/01/21 06:39:20;;;;;;;;;;;1.10;99.90;;;;;;5060160;28;20344;-74
2022/01/21 06:41:48;;;;;;;;;;;1.00;99.90;;;;;;5057981;28;19924;-74
2022/01/21 06:44:18;;;;;;;;;;;1.00;99.90;;;;;;5054029;28;19932;-73
2022/01/21 06:46:48;;;;;;;;;;;1.00;99.90;;;;;;5064137;28;19948;-74
2022/01/21 06:49:16;;;;;;;;;;;1.00;99.90;;;;;;5058667;28;19933;-74
2022/01/21 06:51:44;;;;;;;;;;;1.00;99.90;;;;;;5065520;28;19928;-76
2022/01/21 06:54:11;;;;;;;;;;;0.90;99.90;;;;;;5060604;28;20053;-75
2022/01/21 06:56:37;;;;;;;;;;;0.90;99.90;;;;;;5057245;28;20547;-75
2022/01/21 06:59:04;;;;;;;;;;;0.90;99.90;;;;;;5059442;28;19928;-74
2022/01/21 07:01:31;;;;;;;;;;;0.90;99.90;;;;;;5063012;28;19928;-75
2022/01/21 07:03:58;;;;;;;;;;;0.90;99.90;;;;;;5060887;28;19931;-75
2022/01/21 07:06:28;;;;;;;;;;;0.90;99.90;;;;;;5059281;28;19929;-75
2022/01/21 07:08:55;;;;;;;;;;;0.90;99.90;;;;;;5052007;28;19944;-76
2022/01/21 07:11:24;;;;;;;;;;;0.90;99.90;;;;;;5056060;28;20494;-76
2022/01/21 07:13:51;;;;;;;;;;;0.90;99.90;;;;;;5054743;28;20379;-74
2022/01/21 07:16:18;;;;;;;;;;;0.80;99.90;;;;;;5053647;28;19932;-74
2022/01/21 07:18:44;;;;;;;;;;;0.90;99.90;;;;;;5055991;28;19970;-75
2022/01/21 07:21:12;;;;;;;;;;;0.90;99.90;;;;;;5053916;28;20302;-76
2022/01/21 07:23:40;;;;;;;;;;;0.80;99.90;;;;;;5058464;28;19936;-75
2022/01/21 07:26:07;;;;;;;;;;;0.90;99.90;;;;;;5052456;28;20156;-73
2022/01/21 07:28:34;;;;;;;;;;;0.90;99.90;;;;;;5056424;28;19931;-75
2022/01/21 07:31:01;;;;;;;;;;;0.90;99.90;;;;;;5054634;28;19960;-73
2022/01/21 07:33:28;;;;;;;;;;;1.00;99.90;;;;;;5054410;28;20382;-74
2022/01/21 07:35:55;;;;;;;;;;;1.00;99.90;;;;;;5050166;28;19925;-75
2022/01/21 07:38:22;;;;;;;;;;;1.00;99.90;;;;;;5050638;28;20012;-76
2022/01/21 07:40:50;;;;;;;;;;;1.10;99.90;;;;;;5058492;28;20449;-73
2022/01/21 07:43:17;;;;;;;;;;;1.20;99.90;;;;;;5052601;28;19935;-73
2022/01/21 07:45:43;;;;;;;;;;;1.40;99.90;;;;;;5051188;28;19933;-73
2022/01/21 07:48:11;;;;;;;;;;;1.40;99.90;;;;;;5057205;28;19925;-73
2022/01/21 07:50:39;;;;;;;;;;;1.40;99.90;;;;;;5057960;28;20256;-73
2022/01/21 07:53:06;;;;;;;;;;;1.40;99.90;;;;;;5059799;28;20358;-73
2022/01/21 07:55:33;;;;;;;;;;;1.40;99.90;;;;;;5043884;28;20592;-72
2022/01/21 07:58:01;;;;;;;;;;;1.50;99.90;;;;;;5050962;28;20012;-73
2022/01/21 08:00:28;;;;;;;;;;;1.60;99.90;;;;;;5055727;28;19932;-73
2022/01/21 08:02:54;;;;;;;;;;;1.70;99.90;;;;;;5057659;28;19924;-73
2022/01/21 08:05:21;;;;;;;;;;;1.80;99.90;;;;;;5062619;28;20023;-72
2022/01/21 08:07:48;;;;;;;;;;;1.90;99.90;;;;;;5044688;28;19939;-72
2022/01/21 08:10:14;;;;;;;;;;;1.90;99.90;;;;;;5051906;28;19928;-72
2022/01/21 08:12:41;;;;;;;;;;;1.90;99.90;;;;;;5053919;28;19925;-72
2022/01/21 08:15:10;;;;;;;;;;;2.00;99.90;;;;;;5050504;28;19931;-73
2022/01/21 08:17:36;;;;;;;;;;;2.20;99.90;;;;;;5052432;28;20395;-72
2022/01/21 08:20:04;;;;;;;;;;;2.20;99.90;;;;;;5057099;28;20150;-74
2022/01/21 08:22:30;;;;;;;;;;;2.30;99.90;;;;;;5051058;28;19933;-72
2022/01/21 08:24:57;;;;;;;;;;;2.30;99.90;;;;;;5053805;28;20028;-72
2022/01/21 08:27:26;;;;;;;;;;;2.30;99.90;;;;;;5051817;28;20019;-72
2022/01/21 08:29:53;;;;;;;;;;;2.30;99.90;;;;;;5055573;28;19931;-72
2022/01/21 08:32:21;;;;;;;;;;;2.40;99.90;;;;;;5052129;28;19924;-71
2022/01/21 08:34:49;;;;;;;;;;;2.50;99.90;;;;;;5050750;28;19931;-73
2022/01/21 08:37:16;;;;;;;;;;;2.50;99.90;;;;;;5050567;28;19933;-71
2022/01/21 08:39:43;;;;;;;;;;;2.50;99.90;;;;;;5048841;28;20383;-73
2022/01/21 08:42:10;;;;;;;;;;;2.50;99.90;;;;;;5051822;28;19925;-72
2022/01/21 08:44:37;;;;;;;;;;;2.60;99.90;;;;;;5054849;28;19933;-72
2022/01/21 08:47:04;;;;;;;;;;;2.60;99.90;;;;;;5050598;28;20191;-72
2022/01/21 08:49:32;;;;;;;;;;;3.40;99.90;;;;;;5051384;28;19928;-71
2022/01/21 08:51:59;;;;;;;;;;;5.20;99.90;;;;;;5052418;28;19947;-72
2022/01/21 08:54:27;;;;;;;;;;;5.40;99.90;;;;;;5058093;28;19924;-71
2022/01/21 08:56:55;;;;;;;;;;;6.10;99.90;;;;;;5047865;28;20015;-71
2022/01/21 08:59:26;;;;;;;;;;;7.30;99.90;;;;;;5063200;28;20023;-71
2022/01/21 09:01:53;;;;;;;;;;;8.10;99.90;;;;;;5055608;28;19924;-71
2022/01/21 09:04:20;;;;;;;;;;;8.10;99.90;;;;;;5058124;28;20021;-71
2022/01/21 09:06:48;;;;;;;;;;;7.10;97.80;;;;;;5052929;28;20414;-71
2022/01/21 09:09:15;;;;;;;;;;;5.80;98.40;;;;;;5059025;28;19931;-72
2022/01/21 09:11:42;;;;;;;;;;;4.90;99.90;;;;;;5059143;28;20015;-71
2022/01/21 09:14:09;;;;;;;;;;;4.30;99.90;;;;;;5061717;28;19932;-70
2022/01/21 09:16:36;;;;;;;;;;;4.00;99.90;;;;;;5065726;28;19924;-70
2022/01/21 09:19:03;;;;;;;;;;;3.80;99.90;;;;;;5057726;28;20477;-70
2022/01/21 09:21:31;;;;;;;;;;;3.60;99.90;;;;;;5058288;28;20299;-71
2022/01/21 09:23:59;;;;;;;;;;;3.50;99.90;;;;;;5056066;28;19924;-70
2022/01/21 09:26:28;;;;;;;;;;;3.60;99.90;;;;;;5065939;28;19930;-70
2022/01/21 09:28:55;;;;;;;;;;;3.60;99.90;;;;;;5059807;28;19925;-71
2022/01/21 09:31:21;;;;;;;;;;;3.70;99.90;;;;;;5057472;28;20409;-71
2022/01/21 09:33:48;;;;;;;;;;;3.80;99.90;;;;;;5060167;28;19944;-70
2022/01/21 09:36:17;;;;;;;;;;;4.20;99.90;;;;;;5062513;28;19924;-71
2022/01/21 09:38:45;;;;;;;;;;;4.90;99.90;;;;;;5057690;28;20034;-71
2022/01/21 09:41:13;;;;;;;;;;;4.90;99.90;;;;;;5063453;28;20109;-72
2022/01/21 09:43:40;;;;;;;;;;;4.90;99.90;;;;;;5065452;28;20292;-73
2022/01/21 09:46:08;;;;;;;;;;;4.90;99.90;;;;;;5057365;28;19968;-71
2022/01/21 09:48:48;;;;;;;;;;;4.90;99.90;;;;;;5061428;28;20035;-73
2022/01/21 09:51:15;;;;;;;;;;;4.70;99.90;;;;;;5066799;28;19986;-72
2022/01/21 09:53:42;;;;;;;;;;;4.50;99.90;;;;;;5060864;28;20299;-72
2022/01/21 09:56:09;;;;;;;;;;;4.40;99.90;;;;;;5058249;28;19939;-72
2022/01/21 09:58:37;;;;;;;;;;;4.30;99.90;;;;;;5061660;28;19951;-72
2022/01/21 10:01:05;;;;;;;;;;;4.30;99.90;;;;;;5055066;28;19931;-72
2022/01/21 10:03:35;;;;;;;;;;;4.30;99.90;;;;;;5056379;28;19931;-73
2022/01/21 10:06:03;;;;;;;;;;;4.30;99.90;;;;;;5053741;28;19924;-73
2022/01/21 10:08:31;;;;;;;;;;;4.30;99.90;;;;;;5055451;28;20383;-74
2022/01/21 10:10:57;;;;;;;;;;;4.50;99.90;;;;;;5053212;28;20012;-71
2022/01/21 10:13:24;;;;;;;;;;;4.60;99.90;;;;;;5058181;28;19925;-72
2022/01/21 10:15:52;;;;;;;;;;;4.80;99.90;;;;;;5053196;28;19933;-70
2022/01/21 10:18:20;;;;;;;;;;;4.80;99.90;;;;;;5058107;28;19924;-70
2022/01/21 10:20:57;;;;;;;;;;;4.90;99.90;;;;;;5057865;28;20402;-72
2022/01/21 10:23:24;;;;;;;;;;;5.00;99.90;;;;;;5059392;28;19979;-71
2022/01/21 10:25:56;;;;;;;;;;;5.20;99.90;;;;;;5060729;28;19935;-71
2022/01/21 10:28:22;;;;;;;;;;;5.40;99.90;;;;;;5066447;28;19968;-71
2022/01/21 10:30:49;;;;;;;;;;;5.70;99.90;;;;;;5058691;28;19929;-70
2022/01/21 10:33:22;;;;;;;;;;;5.90;99.90;;;;;;5055645;28;19968;-72
2022/01/21 10:35:51;;;;;;;;;;;6.10;99.90;;;;;;5055592;28;21038;-73
2022/01/21 10:38:18;;;;;;;;;;;6.20;99.90;;;;;;5059753;28;19933;-71
2022/01/21 10:40:44;;;;;;;;;;;6.20;99.90;;;;;;5060108;28;20596;-71
2022/01/21 10:43:12;;;;;;;;;;;6.20;99.90;;;;;;5054458;28;19931;-73
2022/01/21 10:45:49;;;;;;;;;;;6.30;99.90;;;;;;5058504;28;19932;-71
2022/01/21 10:48:16;;;;;;;;;;;6.50;99.90;;;;;;5052473;28;19959;-72
2022/01/21 10:50:44;;;;;;;;;;;6.40;99.90;;;;;;5050598;28;19945;-71
2022/01/21 10:53:26;;;;;;;;;;;6.30;99.90;;;;;;5055093;28;20022;-71
2022/01/21 10:55:52;;;;;;;;;;;6.20;99.90;;;;;;5052840;28;20394;-70
2022/01/21 10:58:19;;;;;;;;;;;6.10;99.90;;;;;;5059270;28;19924;-71
2022/01/21 11:00:58;;;;;;;;;;;6.10;99.90;;;;;;5059058;28;20391;-70
2022/01/21 11:03:25;;;;;;;;;;;6.20;99.90;;;;;;5050059;28;19948;-70
2022/01/21 11:06:08;;;;;;;;;;;6.10;99.90;;;;;;5054482;28;20027;-72
2022/01/21 11:08:38;;;;;;;;;;;6.20;99.90;;;;;;5051152;28;19938;-71
2022/01/21 11:11:06;;;;;;;;;;;6.10;99.90;;;;;;5052870;28;19925;-72
2022/01/21 11:13:41;;;;;;;;;;;6.20;99.90;;;;;;5058128;28;19925;-75
2022/01/21 11:16:20;;;;;;;;;;;6.20;99.90;;;;;;5056437;28;20458;-74
2022/01/21 11:18:51;;;;;;;;;;;6.30;99.90;;;;;;5055985;28;20501;-71
2022/01/21 11:21:19;;;;;;;;;;;6.40;99.90;;;;;;5053277;28;19957;-71
2022/01/21 11:23:46;;;;;;;;;;;6.40;99.90;;;;;;5052999;28;19993;-72
2022/01/21 11:26:15;;;;;;;;;;;6.40;99.90;;;;;;5054074;28;20015;-74
2022/01/21 11:28:45;;;;;;;;;;;6.40;99.90;;;;;;5047606;28;20354;-72
2022/01/21 11:31:13;;;;;;;;;;;6.50;99.90;;;;;;5053389;28;19925;-72
2022/01/21 11:33:40;;;;;;;;;;;6.50;99.90;;;;;;5057068;28;19930;-72
2022/01/21 11:36:08;;;;;;;;;;;6.60;99.90;;;;;;5057506;28;19933;-71
2022/01/21 11:38:38;;;;;;;;;;;6.70;99.90;;;;;;5057968;28;20041;-71
2022/01/21 11:41:05;;;;;;;;;;;6.70;99.90;;;;;;5049448;28;19924;-72
2022/01/21 11:43:33;;;;;;;;;;;6.80;99.90;;;;;;5056553;28;19925;-73
2022/01/21 11:48:50;;;;;;;;;;;7.00;99.90;;;;;;5047024;28;20326;-75
2022/01/21 11:51:21;;;;;;;;;;;7.10;99.90;;;;;;5063008;28;19925;-74
2022/01/21 11:53:50;;;;;;;;;;;7.10;99.90;;;;;;5059229;28;20171;-73
2022/01/21 11:56:31;;;;;;;;;;;7.00;99.90;;;;;;5054707;28;19925;-72
2022/01/21 11:59:05;;;;;;;;;;;6.80;99.90;;;;;;5048951;28;20295;-72
2022/01/21 12:01:32;;;;;;;;;;;6.70;99.90;;;;;;5042835;28;19928;-73
2022/01/21 12:04:00;;;;;;;;;;;6.50;99.90;;;;;;5055666;28;20375;-75
2022/01/21 12:06:34;;;;;;;;;;;6.30;99.90;;;;;;5052914;28;20029;-72
2022/01/21 12:09:04;;;;;;;;;;;6.20;99.90;;;;;;5055707;28;19935;-72
2022/01/21 12:11:32;;;;;;;;;;;6.20;99.90;;;;;;5049832;28;19925;-72
2022/01/21 12:13:59;;;;;;;;;;;6.20;99.90;;;;;;5055533;28;19928;-72
2022/01/21 12:16:48;;;;;;;;;;;6.20;99.90;;;;;;5057633;28;20497;-71
2022/01/21 12:19:25;;;;;;;;;;;6.10;99.90;;;;;;5053004;28;19925;-71
2022/01/21 12:21:53;;;;;;;;;;;6.10;99.90;;;;;;5051736;28;19929;-72
2022/01/21 12:24:47;;;;;;;;;;;6.20;99.90;;;;;;5056532;28;20415;-72
2022/01/21 12:27:14;;;;;;;;;;;6.30;99.90;;;;;;5052605;28;20459;-71
2022/01/21 12:29:41;;;;;;;;;;;6.50;99.90;;;;;;5056033;28;19925;-71
2022/01/21 12:32:15;;;;;;;;;;;6.60;99.90;;;;;;5047892;28;19935;-70
2022/01/21 12:35:01;;;;;;;;;;;6.80;99.90;;;;;;5058368;28;19924;-71
2022/01/21 12:37:39;;;;;;;;;;;6.90;99.90;;;;;;5054435;28;20019;-73
2022/01/21 12:40:08;;;;;;;;;;;6.90;99.90;;;;;;5050513;28;19925;-73
2022/01/21 12:42:36;;;;;;;;;;;6.90;99.90;;;;;;5060081;28;19982;-74
2022/01/21 12:45:26;;;;;;;;;;;6.90;99.90;;;;;;5065659;28;19925;-74
2022/01/21 12:47:53;;;;;;;;;;;6.70;99.90;;;;;;5047486;28;19925;-74
2022/01/21 12:50:28;;;;;;;;;;;6.60;99.90;;;;;;5052167;28;20100;-75
2022/01/21 12:53:06;;;;;;;;;;;6.50;99.90;;;;;;5057278;28;19929;-75
2022/01/21 12:58:20;;;;;;;;;;;6.50;99.90;;;;;;5062375;28;20310;-77
2022/01/21 13:00:47;;;;;;;;;;;6.40;99.90;;;;;;5057088;28;20007;-75
2022/01/21 13:03:21;;;;;;;;;;;6.40;99.90;;;;;;5060471;28;19924;-75
2022/01/21 13:05:55;;;;;;;;;;;6.30;99.90;;;;;;5057674;28;19992;-76
2022/01/21 13:08:29;;;;;;;;;;;6.30;99.90;;;;;;5055708;28;19947;-76
2022/01/21 13:10:58;;;;;;;;;;;6.30;99.90;;;;;;5049062;28;19959;-75
2022/01/21 13:13:45;;;;;;;;;;;6.20;99.90;;;;;;5046763;28;19951;-75
2022/01/21 13:16:23;;;;;;;;;;;6.00;99.90;;;;;;5049775;28;19939;-75
2022/01/21 13:18:49;;;;;;;;;;;6.00;99.90;;;;;;5043552;28;19995;-74
2022/01/21 13:21:16;;;;;;;;;;;5.90;99.90;;;;;;5051284;28;20383;-75
2022/01/21 13:23:50;;;;;;;;;;;5.90;99.90;;;;;;5052086;28;20368;-74
2022/01/21 13:26:19;;;;;;;;;;;5.90;99.90;;;;;;5054297;28;20423;-75
2022/01/21 13:28:59;;;;;;;;;;;6.00;99.90;;;;;;5052492;28;19928;-76
2022/01/21 13:31:26;;;;;;;;;;;6.00;99.90;;;;;;5050053;28;19932;-75
2022/01/21 13:34:11;;;;;;;;;;;6.10;99.90;;;;;;5052043;28;19924;-77
2022/01/21 13:36:39;;;;;;;;;;;6.10;99.90;;;;;;5056184;28;19932;-75
2022/01/21 13:39:08;;;;;;;;;;;6.10;99.90;;;;;;5047852;28;19933;-77
2022/01/21 13:41:47;;;;;;;;;;;6.10;99.90;;;;;;5052253;28;19932;-76
2022/01/21 13:44:14;;;;;;;;;;;6.10;99.90;;;;;;5053509;28;19924;-76
2022/01/21 13:46:40;;;;;;;;;;;6.10;99.90;;;;;;5062717;28;19931;-74
2022/01/21 13:49:07;;;;;;;;;;;6.20;99.90;;;;;;5054263;28;19947;-74
2022/01/21 13:51:34;;;;;;;;;;;6.10;99.90;;;;;;5055363;28;20131;-75
2022/01/21 13:54:04;;;;;;;;;;;6.10;99.90;;;;;;5054833;28;19939;-75
2022/01/21 13:56:31;;;;;;;;;;;6.20;99.90;;;;;;5054879;28;19924;-75
2022/01/21 13:58:59;;;;;;;;;;;6.30;99.90;;;;;;5053562;28;19925;-75
2022/01/21 14:01:28;;;;;;;;;;;6.30;99.90;;;;;;5055200;28;19983;-75
2022/01/21 14:03:58;;;;;;;;;;;6.30;99.90;;;;;;5063885;28;19935;-75
2022/01/21 14:06:24;;;;;;;;;;;6.20;99.90;;;;;;5051759;28;19955;-75
2022/01/21 14:08:52;;;;;;;;;;;6.20;99.90;;;;;;5051617;28;19932;-75
2022/01/21 14:11:24;;;;;;;;;;;6.20;99.90;;;;;;5058691;28;19931;-76
2022/01/21 14:13:51;;;;;;;;;;;6.10;99.90;;;;;;5058951;28;19932;-75
2022/01/21 14:16:25;;;;;;;;;;;6.10;99.90;;;;;;5061015;28;19924;-76
2022/01/21 14:18:52;;;;;;;;;;;6.00;99.90;;;;;;5060247;28;19982;-76
2022/01/21 14:21:21;;;;;;;;;;;5.90;99.90;;;;;;5052625;28;19943;-76
2022/01/21 14:23:49;;;;;;;;;;;5.90;99.90;;;;;;5065205;28;19986;-78
2022/01/21 14:26:17;;;;;;;;;;;5.90;99.90;;;;;;5059921;28;20015;-77
2022/01/21 14:28:45;;;;;;;;;;;6.00;99.90;;;;;;5049552;28;19925;-76
2022/01/21 14:31:31;;;;;;;;;;;6.00;99.90;;;;;;5053098;28;20292;-77
2022/01/21 14:33:57;;;;;;;;;;;6.00;99.90;;;;;;5056462;28;19932;-76
2022/01/21 14:36:24;;;;;;;;;;;6.00;99.90;;;;;;5055676;28;19974;-77
2022/01/21 14:38:52;;;;;;;;;;;6.00;99.90;;;;;;5057669;28;19967;-77
2022/01/21 14:41:19;;;;;;;;;;;6.10;99.90;;;;;;5052943;28;19925;-77
2022/01/21 14:43:52;;;;;;;;;;;6.10;99.90;;;;;;5053121;28;19925;-75
2022/01/21 14:46:24;;;;;;;;;;;6.10;99.90;;;;;;5063318;28;19925;-78
2022/01/21 14:48:57;;;;;;;;;;;6.00;99.90;;;;;;5074438;28;19996;-76
2022/01/21 14:51:45;;;;;;;;;;;6.00;99.90;;;;;;5066961;28;19924;-76
2022/01/21 14:54:12;;;;;;;;;;;6.00;99.90;;;;;;5058553;28;20188;-78
2022/01/21 14:56:40;;;;;;;;;;;6.00;99.90;;;;;;5062148;28;19998;-79
2022/01/21 14:59:08;;;;;;;;;;;5.90;99.90;;;;;;5065964;28;19925;-77
2022/01/21 15:01:35;;;;;;;;;;;5.90;99.90;;;;;;5056772;28;19933;-77
2022/01/21 15:04:13;;;;;;;;;;;5.90;99.90;;;;;;5054829;28;19940;-76
2022/01/21 15:06:40;;;;;;;;;;;5.90;99.90;;;;;;5058282;28;19951;-75
2022/01/21 15:09:08;;;;;;;;;;;6.00;99.90;;;;;;5065388;28;19932;-75
2022/01/21 15:11:56;;;;;;;;;;;6.00;99.90;;;;;;5054624;28;20396;-76
2022/01/21 15:14:26;;;;;;;;;;;6.00;99.90;;;;;;5059889;28;20356;-76
2022/01/21 15:16:56;;;;;;;;;;;6.00;99.90;;;;;;5052739;28;19932;-76
2022/01/21 15:19:30;;;;;;;;;;;6.10;99.90;;;;;;5058893;28;19925;-76
2022/01/21 15:21:59;;;;;;;;;;;6.10;99.90;;;;;;5057464;28;20019;-76